createdAt,value
2024-02-03T00:00:12.924Z,63.56
2024-02-03T00:02:39.941Z,63.45
2024-02-03T00:05:06.720Z,63.33
2024-02-03T00:07:33.871Z,63.41
2024-02-03T00:10:00.530Z,63.59
2024-02-03T00:12:29.934Z,63.41
2024-02-03T00:14:57.247Z,63.54
2024-02-03T00:17:24.278Z,63.71
2024-02-03T00:19:53.741Z,63.75
2024-02-03T00:22:20.896Z,63.39
2024-02-03T00:24:47.992Z,63.34
2024-02-03T00:27:15.372Z,63.74
2024-02-03T00:29:42.081Z,63.45
2024-02-03T00:32:08.981Z,63.25
2024-02-03T00:34:36.534Z,63.22
2024-02-03T00:37:05.323Z,63.06
2024-02-03T00:39:32.179Z,63.50
2024-02-03T00:41:59.046Z,63.23
2024-02-03T00:44:25.756Z,63.30
2024-02-03T00:46:52.515Z,63.49
2024-02-03T00:49:19.375Z,63.09
2024-02-03T00:51:46.215Z,63.26
2024-02-03T00:54:12.955Z,63.31
2024-02-03T00:56:39.567Z,63.49
2024-02-03T00:59:06.277Z,63.02
2024-02-03T01:01:33.167Z,63.41
2024-02-03T01:04:00.846Z,62.96
2024-02-03T01:06:28.096Z,63.27
2024-02-03T01:08:54.887Z,62.98
2024-02-03T01:11:21.682Z,62.96
2024-02-03T01:13:48.349Z,63.35
2024-02-03T01:16:16.803Z,63.32
2024-02-03T01:18:46.106Z,63.14
2024-02-03T01:21:17.667Z,63.18
2024-02-03T01:23:45.668Z,62.98
2024-02-03T01:26:12.300Z,63.17
2024-02-03T01:28:39.013Z,62.91
2024-02-03T01:31:06.164Z,62.91
2024-02-03T01:33:33.361Z,63.20
2024-02-03T01:36:00.190Z,63.17
2024-02-03T01:38:27.071Z,63.07
2024-02-03T01:40:54.230Z,62.70
2024-02-03T01:43:21.016Z,63.04
2024-02-03T01:45:47.835Z,62.89
2024-02-03T01:48:15.024Z,62.88
2024-02-03T01:50:45.579Z,63.04
2024-02-03T01:53:14.003Z,62.96
2024-02-03T01:55:41.153Z,62.88
2024-02-03T01:58:08.187Z,62.67
2024-02-03T02:00:34.968Z,62.60
2024-02-03T02:03:01.903Z,62.54
2024-02-03T02:05:31.825Z,62.88
2024-02-03T02:07:58.631Z,62.63
2024-02-03T02:10:25.325Z,62.50
2024-02-03T02:12:52.087Z,62.52
2024-02-03T02:15:18.930Z,62.56
2024-02-03T02:17:45.902Z,62.69
2024-02-03T02:20:13.258Z,62.86
2024-02-03T02:22:40.214Z,62.56
2024-02-03T02:25:07.158Z,62.49
2024-02-03T02:27:34.350Z,62.38
2024-02-03T02:30:01.221Z,62.53
2024-02-03T02:32:27.938Z,62.52
2024-02-03T02:34:54.693Z,62.55
2024-02-03T02:37:21.458Z,62.60
2024-02-03T02:39:48.906Z,62.56
2024-02-03T02:42:16.941Z,62.57
2024-02-03T02:44:45.488Z,62.49
2024-02-03T02:47:12.178Z,62.43
2024-02-03T02:49:39.069Z,62.59
2024-02-03T02:52:06.589Z,62.58
2024-02-03T02:54:33.757Z,62.50
2024-02-03T02:57:00.467Z,62.61
2024-02-03T02:59:27.387Z,62.39
2024-02-03T03:01:54.055Z,62.68
2024-02-03T03:04:20.745Z,62.74
2024-02-03T03:06:47.563Z,62.68
2024-02-03T03:09:14.556Z,63.02
2024-02-03T03:11:41.222Z,62.91
2024-02-03T03:14:08.363Z,63.12
2024-02-03T03:16:36.007Z,63.03
2024-02-03T03:19:02.993Z,62.96
2024-02-03T03:21:29.798Z,63.24
2024-02-03T03:23:56.497Z,63.23
2024-02-03T03:26:23.103Z,63.07
2024-02-03T03:28:49.678Z,63.35
2024-02-03T03:31:16.255Z,63.45
2024-02-03T03:33:43.090Z,63.63
2024-02-03T03:36:12.305Z,63.16
2024-02-03T03:38:44.054Z,63.03
2024-02-03T03:41:11.326Z,63.13
2024-02-03T03:43:38.537Z,63.07
2024-02-03T03:46:07.749Z,63.33
2024-02-03T03:48:34.517Z,63.46
2024-02-03T03:51:01.280Z,63.47
2024-02-03T03:53:27.898Z,63.51
2024-02-03T03:55:54.529Z,63.49
2024-02-03T03:58:21.148Z,63.46
2024-02-03T04:00:47.874Z,63.50
2024-02-03T04:03:14.753Z,63.59
2024-02-03T04:05:42.156Z,63.66
2024-02-03T04:08:09.065Z,63.47
2024-02-03T04:10:35.742Z,63.37
2024-02-03T04:13:02.327Z,63.65
2024-02-03T04:15:30.378Z,63.61
2024-02-03T04:17:58.614Z,63.40
2024-02-03T04:20:28.123Z,63.43
2024-02-03T04:22:54.907Z,63.50
2024-02-03T04:25:21.605Z,63.28
2024-02-03T04:27:48.434Z,63.45
2024-02-03T04:30:22.820Z,63.14
2024-02-03T04:32:52.755Z,63.37
2024-02-03T04:35:19.748Z,63.33
2024-02-03T04:37:46.360Z,63.09
2024-02-03T04:40:13.062Z,63.02
2024-02-03T04:42:39.760Z,63.26
2024-02-03T04:45:07.863Z,63.32
2024-02-03T04:47:34.833Z,62.98
2024-02-03T04:50:02.122Z,63.14
2024-02-03T04:52:29.218Z,63.31
2024-02-03T04:54:55.933Z,63.03
2024-02-03T04:57:22.637Z,62.98
2024-02-03T04:59:49.290Z,62.88
2024-02-03T05:02:15.908Z,63.03
2024-02-03T05:04:44.176Z,63.27
2024-02-03T05:07:11.075Z,63.05
2024-02-03T05:09:38.067Z,62.80
2024-02-03T05:12:05.264Z,62.90
2024-02-03T05:14:32.562Z,62.85
2024-02-03T05:17:00.362Z,62.97
2024-02-03T05:19:29.025Z,63.04
2024-02-03T05:21:55.823Z,62.94
2024-02-03T05:24:23.631Z,62.98
2024-02-03T05:26:50.428Z,63.12
2024-02-03T05:29:17.623Z,63.14
2024-02-03T05:31:45.579Z,62.67
2024-02-03T05:34:13.188Z,62.62
2024-02-03T05:36:40.069Z,62.82
2024-02-03T05:39:07.089Z,62.96
2024-02-03T05:41:33.677Z,62.70
2024-02-03T05:44:00.442Z,63.09
2024-02-03T05:46:27.066Z,62.93
2024-02-03T05:48:55.519Z,62.99
2024-02-03T05:51:22.451Z,62.94
2024-02-03T05:53:49.290Z,62.92
2024-02-03T05:56:15.905Z,62.87
2024-02-03T05:58:47.056Z,62.65
2024-02-03T06:01:13.836Z,62.64
2024-02-03T06:03:40.552Z,62.82
2024-02-03T06:06:22.220Z,62.75
2024-02-03T06:08:52.734Z,62.70
2024-02-03T06:11:19.358Z,62.78
2024-02-03T06:13:46.753Z,62.79
2024-02-03T06:16:13.514Z,62.71
2024-02-03T06:18:40.192Z,62.86
2024-02-03T06:21:06.969Z,62.93
2024-02-03T06:23:33.557Z,62.76
2024-02-03T06:26:00.342Z,62.78
2024-02-03T06:28:26.974Z,62.60
2024-02-03T06:30:53.664Z,62.80
2024-02-03T06:33:20.434Z,62.92
2024-02-03T06:35:47.233Z,62.71
2024-02-03T06:38:14.584Z,62.92
2024-02-03T06:40:41.464Z,62.64
2024-02-03T06:43:08.303Z,62.64
2024-02-03T06:45:35.090Z,62.49
2024-02-03T06:48:01.952Z,62.79
2024-02-03T06:50:28.635Z,62.69
2024-02-03T06:52:55.259Z,62.91
2024-02-03T06:55:21.937Z,62.88
2024-02-03T06:57:48.666Z,62.75
2024-02-03T07:00:16.124Z,62.50
2024-02-03T07:02:42.785Z,62.50
2024-02-03T07:05:09.695Z,62.59
2024-02-03T07:07:36.786Z,62.71
2024-02-03T07:10:03.653Z,62.64
2024-02-03T07:12:30.297Z,62.63
2024-02-03T07:14:57.051Z,62.64
2024-02-03T07:17:23.876Z,62.94
2024-02-03T07:19:50.671Z,62.49
2024-02-03T07:22:17.431Z,62.53
2024-02-03T07:24:45.572Z,62.55
2024-02-03T07:27:12.339Z,62.95
2024-02-03T07:29:40.333Z,62.59
2024-02-03T07:32:07.632Z,62.60
2024-02-03T07:34:34.809Z,62.85
2024-02-03T07:37:01.997Z,62.82
2024-02-03T07:39:28.767Z,62.90
2024-02-03T07:41:56.065Z,62.68
2024-02-03T07:44:22.884Z,63.11
2024-02-03T07:46:49.544Z,62.90
2024-02-03T07:49:16.328Z,63.09
2024-02-03T07:51:43.015Z,63.14
2024-02-03T07:54:10.887Z,62.97
2024-02-03T07:56:38.186Z,62.83
2024-02-03T07:59:04.760Z,62.98
2024-02-03T08:01:31.416Z,63.17
2024-02-03T08:03:59.345Z,62.91
2024-02-03T08:06:26.155Z,62.93
2024-02-03T08:08:52.867Z,63.06
2024-02-03T08:11:19.753Z,62.93
2024-02-03T08:13:46.376Z,62.75
2024-02-03T08:16:12.994Z,63.29
2024-02-03T08:18:39.785Z,62.97
2024-02-03T08:21:06.989Z,63.04
2024-02-03T08:23:33.665Z,62.97
2024-02-03T08:26:00.423Z,62.96
2024-02-03T08:28:27.135Z,62.97
2024-02-03T08:30:53.777Z,63.24
2024-02-03T08:33:20.552Z,62.90
2024-02-03T08:35:47.513Z,62.88
2024-02-03T08:38:14.785Z,63.24
2024-02-03T08:40:41.584Z,63.14
2024-02-03T08:43:08.250Z,63.00
2024-02-03T08:45:34.868Z,62.96
2024-02-03T08:48:01.591Z,62.88
2024-02-03T08:50:28.618Z,63.22
2024-02-03T08:52:55.341Z,62.78
2024-02-03T08:55:22.109Z,63.14
2024-02-03T08:57:48.834Z,62.84
2024-02-03T09:00:16.067Z,62.97
2024-02-03T09:02:42.719Z,63.07
2024-02-03T09:05:09.494Z,63.05
2024-02-03T09:07:36.393Z,62.84
2024-02-03T09:10:04.664Z,63.03
2024-02-03T09:12:31.469Z,62.79
2024-02-03T09:14:58.108Z,62.90
2024-02-03T09:17:24.712Z,62.69
2024-02-03T09:19:51.389Z,63.04
2024-02-03T09:22:18.181Z,62.95
2024-02-03T09:24:46.036Z,62.77
2024-02-03T09:27:12.641Z,62.95
2024-02-03T09:29:45.045Z,62.78
2024-02-03T09:32:11.660Z,62.56
2024-02-03T09:34:38.497Z,62.46
2024-02-03T09:39:35.021Z,62.75
2024-02-03T09:42:02.128Z,62.75
2024-02-03T09:44:28.925Z,62.67
2024-02-03T09:46:56.131Z,62.65
2024-02-03T09:49:22.904Z,62.84
2024-02-03T09:51:51.817Z,62.81
2024-02-03T09:54:18.897Z,62.68
2024-02-03T09:56:47.666Z,62.75
2024-02-03T09:59:15.969Z,62.79
2024-02-03T10:01:48.948Z,62.72
2024-02-03T10:04:16.552Z,62.90
2024-02-03T10:06:45.693Z,62.94
2024-02-03T10:09:24.950Z,63.01
2024-02-03T10:11:52.021Z,62.95
2024-02-03T10:14:22.044Z,62.89
2024-02-03T10:16:52.458Z,62.86
2024-02-03T10:19:21.583Z,62.74
2024-02-03T10:21:48.528Z,62.55
2024-02-03T10:24:27.322Z,62.61
2024-02-03T10:27:05.360Z,62.76
2024-02-03T10:29:32.075Z,62.67
2024-02-03T10:31:58.661Z,62.71
2024-02-03T10:34:26.985Z,62.54
2024-02-03T10:36:53.923Z,62.91
2024-02-03T10:39:21.167Z,62.53
2024-02-03T10:41:48.627Z,62.59
2024-02-03T10:44:23.455Z,62.92
2024-02-03T10:46:52.871Z,62.72
2024-02-03T10:49:28.981Z,62.72
2024-02-03T10:51:56.886Z,62.48
2024-02-03T10:54:27.056Z,62.50
2024-02-03T10:56:54.996Z,62.88
2024-02-03T10:59:22.078Z,62.57
2024-02-03T11:01:49.126Z,62.59
2024-02-03T11:04:16.441Z,62.71
2024-02-03T11:06:46.438Z,62.71
2024-02-03T11:09:13.948Z,62.88
2024-02-03T11:11:56.065Z,62.79
2024-02-03T11:14:28.386Z,62.76
2024-02-03T11:17:02.016Z,63.10
2024-02-03T11:19:31.166Z,62.85
2024-02-03T11:22:04.406Z,62.79
2024-02-03T11:24:32.152Z,62.94
2024-02-03T11:27:09.114Z,63.20
2024-02-03T11:29:37.210Z,63.37
2024-02-03T11:32:05.429Z,62.97
2024-02-03T11:34:34.049Z,63.15
2024-02-03T11:37:01.340Z,63.21
2024-02-03T11:39:33.111Z,63.44
2024-02-03T11:42:00.049Z,63.45
2024-02-03T11:44:35.528Z,63.21
2024-02-03T11:47:02.154Z,63.08
2024-02-03T11:49:28.958Z,63.39
2024-02-03T11:52:03.354Z,63.54
2024-02-03T11:54:30.039Z,63.19
2024-02-03T11:56:56.670Z,63.72
2024-02-03T11:59:30.135Z,63.81
2024-02-03T12:01:57.784Z,63.78
2024-02-03T12:04:26.790Z,63.65
2024-02-03T12:06:55.850Z,63.85
2024-02-03T12:09:22.544Z,63.72
2024-02-03T12:11:53.090Z,63.60
2024-02-03T12:14:20.339Z,63.73
2024-02-03T12:16:47.250Z,63.77
2024-02-03T12:19:14.296Z,63.88
2024-02-03T12:21:42.253Z,63.77
2024-02-03T12:24:09.886Z,63.68
2024-02-03T12:26:36.875Z,63.70
2024-02-03T12:29:04.015Z,64.03
2024-02-03T12:31:30.841Z,63.99
2024-02-03T12:33:57.631Z,63.80
2024-02-03T12:36:25.614Z,63.72
2024-02-03T12:38:53.927Z,64.02
2024-02-03T12:41:21.038Z,63.90
2024-02-03T12:43:47.672Z,64.09
2024-02-03T12:46:15.696Z,64.12
2024-02-03T12:48:42.652Z,64.07
2024-02-03T12:51:09.428Z,63.90
2024-02-03T12:53:36.091Z,64.11
2024-02-03T12:56:04.210Z,64.18
2024-02-03T12:58:33.283Z,64.30
2024-02-03T13:01:00.220Z,64.25
2024-02-03T13:03:27.039Z,64.18
2024-02-03T13:05:53.819Z,64.50
2024-02-03T13:08:20.944Z,64.26
2024-02-03T13:10:47.693Z,64.47
2024-02-03T13:13:14.401Z,64.35
2024-02-03T13:15:41.023Z,64.39
2024-02-03T13:18:07.834Z,64.64
2024-02-03T13:20:34.507Z,64.41
2024-02-03T13:23:01.102Z,64.67
2024-02-03T13:25:27.700Z,64.38
2024-02-03T13:27:54.424Z,64.88
2024-02-03T13:30:21.248Z,64.89
2024-02-03T13:32:48.133Z,64.66
2024-02-03T13:35:15.256Z,64.70
2024-02-03T13:37:42.056Z,64.43
2024-02-03T13:40:09.093Z,64.69
2024-02-03T13:42:35.737Z,64.45
2024-02-03T13:45:02.415Z,64.40
2024-02-03T13:47:29.058Z,64.86
2024-02-03T13:49:55.894Z,64.68
2024-02-03T13:52:22.776Z,64.72
2024-02-03T13:54:49.434Z,64.93
2024-02-03T13:57:16.128Z,64.51
2024-02-03T13:59:42.833Z,64.51
2024-02-03T14:02:09.513Z,64.93
2024-02-03T14:04:36.297Z,64.97
2024-02-03T14:07:03.086Z,64.86
2024-02-03T14:09:29.696Z,64.97
2024-02-03T14:11:56.982Z,64.68
2024-02-03T14:14:23.884Z,64.91
2024-02-03T14:16:50.789Z,64.86
2024-02-03T14:19:17.618Z,64.72
2024-02-03T14:21:47.471Z,64.83
2024-02-03T14:24:14.313Z,64.88
2024-02-03T14:26:41.912Z,64.62
2024-02-03T14:29:08.734Z,64.84
2024-02-03T14:31:35.355Z,64.90
2024-02-03T14:34:02.157Z,64.94
2024-02-03T14:36:30.089Z,64.99
2024-02-03T14:38:56.935Z,64.91
2024-02-03T14:41:23.518Z,64.69
2024-02-03T14:43:50.084Z,64.68
2024-02-03T14:46:16.696Z,64.70
2024-02-03T14:48:44.662Z,64.62
2024-02-03T14:51:11.547Z,64.69
2024-02-03T14:53:38.499Z,64.71
2024-02-03T14:56:05.442Z,64.74
2024-02-03T14:58:32.067Z,64.57
2024-02-03T15:00:58.767Z,64.39
2024-02-03T15:03:25.536Z,64.74
2024-02-03T15:05:52.551Z,64.43
2024-02-03T15:08:19.408Z,64.58
2024-02-03T15:10:46.154Z,64.35
2024-02-03T15:13:12.828Z,64.38
2024-02-03T15:15:39.547Z,64.66
2024-02-03T15:18:07.572Z,64.50
2024-02-03T15:20:34.646Z,64.64
2024-02-03T15:23:03.738Z,64.35
2024-02-03T15:25:30.634Z,64.08
2024-02-03T15:27:57.357Z,64.15
2024-02-03T15:30:24.107Z,64.33
2024-02-03T15:32:51.064Z,64.07
2024-02-03T15:35:18.191Z,63.98
2024-02-03T15:37:47.090Z,64.29
2024-02-03T15:40:14.280Z,64.23
2024-02-03T15:42:50.834Z,64.38
2024-02-03T15:45:22.443Z,63.94
2024-02-03T15:47:49.319Z,64.12
2024-02-03T15:50:16.256Z,64.18
2024-02-03T15:52:42.963Z,64.29
2024-02-03T15:55:13.007Z,64.03
2024-02-03T15:57:39.948Z,64.00
2024-02-03T16:00:07.132Z,64.00
2024-02-03T16:02:38.627Z,63.97
2024-02-03T16:05:05.767Z,64.19
2024-02-03T16:07:32.757Z,63.87
2024-02-03T16:10:00.976Z,64.09
2024-02-03T16:12:27.951Z,64.11
2024-02-03T16:14:54.694Z,64.02
2024-02-03T16:17:23.193Z,64.20
2024-02-03T16:19:50.254Z,63.93
2024-02-03T16:22:17.094Z,63.69
2024-02-03T16:24:45.622Z,63.75
2024-02-03T16:27:12.513Z,63.50
2024-02-03T16:29:39.297Z,63.57
2024-02-03T16:32:06.067Z,63.75
2024-02-03T16:34:33.125Z,63.72
2024-02-03T16:36:59.932Z,63.81
2024-02-03T16:39:28.657Z,63.83
2024-02-03T16:41:56.757Z,63.67
2024-02-03T16:44:23.365Z,63.46
2024-02-03T16:46:49.939Z,63.68
2024-02-03T16:49:16.764Z,63.55
2024-02-03T16:51:44.524Z,63.46
2024-02-03T16:54:11.288Z,63.24
2024-02-03T16:56:38.353Z,63.46
2024-02-03T16:59:05.122Z,63.48
2024-02-03T17:01:31.728Z,63.25
2024-02-03T17:03:59.940Z,63.26
2024-02-03T17:06:33.380Z,63.49
2024-02-03T17:09:00.022Z,63.28
2024-02-03T17:11:27.122Z,63.13
2024-02-03T17:13:54.007Z,63.52
2024-02-03T17:16:20.544Z,63.13
2024-02-03T17:18:47.364Z,63.14
2024-02-03T17:21:14.276Z,63.38
2024-02-03T17:23:40.916Z,63.27
2024-02-03T17:26:08.353Z,63.58
2024-02-03T17:28:35.115Z,63.15
2024-02-03T17:31:01.855Z,63.01
2024-02-03T17:33:29.062Z,63.32
2024-02-03T17:35:55.846Z,63.40
2024-02-03T17:38:22.466Z,63.10
2024-02-03T17:40:49.141Z,63.20
2024-02-03T17:43:15.829Z,63.20
2024-02-03T17:45:42.450Z,63.17
2024-02-03T17:48:09.159Z,63.03
2024-02-03T17:50:36.617Z,63.12
2024-02-03T17:53:03.994Z,62.90
2024-02-03T17:55:30.763Z,63.36
2024-02-03T17:57:58.241Z,63.20
2024-02-03T18:00:26.168Z,63.47
2024-02-03T18:02:53.137Z,62.99
2024-02-03T18:05:20.010Z,63.26
2024-02-03T18:07:46.656Z,63.51
2024-02-03T18:10:13.258Z,63.12
2024-02-03T18:12:40.734Z,63.24
2024-02-03T18:15:08.647Z,63.27
2024-02-03T18:17:35.999Z,63.18
2024-02-03T18:20:03.746Z,63.42
2024-02-03T18:22:33.275Z,63.21
2024-02-03T18:25:00.031Z,63.33
2024-02-03T18:27:26.718Z,63.58
2024-02-03T18:29:53.397Z,63.56
2024-02-03T18:32:19.988Z,63.59
2024-02-03T18:34:46.715Z,63.37
2024-02-03T18:37:13.417Z,63.44
2024-02-03T18:39:40.362Z,63.66
2024-02-03T18:42:07.276Z,63.51
2024-02-03T18:44:34.111Z,63.68
2024-02-03T18:47:01.378Z,63.47
2024-02-03T18:49:29.146Z,63.69
2024-02-03T18:51:55.912Z,63.39
2024-02-03T18:54:23.809Z,63.71
2024-02-03T18:56:50.509Z,63.47
2024-02-03T18:59:17.207Z,63.79
2024-02-03T19:01:46.043Z,63.85
2024-02-03T19:04:14.310Z,63.77
2024-02-03T19:06:41.079Z,63.67
2024-02-03T19:09:08.274Z,63.55
2024-02-03T19:11:36.931Z,63.80
2024-02-03T19:14:03.812Z,63.90
2024-02-03T19:16:30.505Z,63.78
2024-02-03T19:18:57.185Z,63.57
2024-02-03T19:21:23.841Z,63.81
2024-02-03T19:23:50.434Z,63.98
2024-02-03T19:26:19.039Z,63.71
2024-02-03T19:28:45.650Z,63.91
2024-02-03T19:31:15.621Z,63.85
2024-02-03T19:33:42.518Z,63.73
2024-02-03T19:36:09.568Z,63.85
2024-02-03T19:38:36.201Z,63.73
2024-02-03T19:41:02.915Z,64.24
2024-02-03T19:43:29.679Z,63.98
2024-02-03T19:45:57.817Z,63.87
2024-02-03T19:48:24.727Z,64.02
2024-02-03T19:50:51.488Z,63.88
2024-02-03T19:53:18.303Z,63.93
2024-02-03T19:55:45.819Z,63.79
2024-02-03T19:58:12.500Z,63.83
2024-02-03T20:00:39.312Z,64.16
2024-02-03T20:03:07.480Z,64.24
2024-02-03T20:05:34.236Z,64.11
2024-02-03T20:08:01.210Z,64.05
2024-02-03T20:10:30.062Z,64.33
2024-02-03T20:12:57.265Z,63.94
2024-02-03T20:15:24.134Z,64.00
2024-02-03T20:17:50.961Z,64.10
2024-02-03T20:20:17.789Z,64.26
2024-02-03T20:22:46.609Z,64.02
2024-02-03T20:25:13.440Z,64.06
2024-02-03T20:27:40.755Z,64.38
2024-02-03T20:30:08.291Z,63.89
2024-02-03T20:32:34.961Z,64.50
2024-02-03T20:35:02.057Z,64.28
2024-02-03T20:37:28.932Z,64.15
2024-02-03T20:39:56.379Z,64.22
2024-02-03T20:42:23.077Z,64.33
2024-02-03T20:44:49.713Z,64.02
2024-02-03T20:47:16.346Z,64.34
2024-02-03T20:49:43.209Z,64.13
2024-02-03T20:52:10.848Z,64.22
2024-02-03T20:54:37.685Z,64.11
2024-02-03T20:57:04.526Z,64.16
2024-02-03T20:59:31.258Z,64.21
2024-02-03T21:01:58.275Z,64.09
2024-02-03T21:04:25.177Z,64.36
2024-02-03T21:06:53.121Z,64.54
2024-02-03T21:09:20.859Z,64.08
2024-02-03T21:11:47.901Z,64.35
2024-02-03T21:14:15.976Z,64.19
2024-02-03T21:16:42.698Z,64.30
2024-02-03T21:19:09.543Z,64.18
2024-02-03T21:21:41.312Z,64.32
2024-02-03T21:24:08.825Z,64.23
2024-02-03T21:26:35.385Z,64.37
2024-02-03T21:29:02.102Z,64.27
2024-02-03T21:31:28.849Z,64.42
2024-02-03T21:33:55.890Z,64.59
2024-02-03T21:36:22.713Z,64.55
2024-02-03T21:38:49.643Z,64.69
2024-02-03T21:41:17.801Z,64.65
2024-02-03T21:43:48.248Z,64.69
2024-02-03T21:46:18.519Z,64.37
2024-02-03T21:48:49.150Z,64.16
2024-02-03T21:51:17.092Z,64.41
2024-02-03T21:53:48.037Z,64.27
2024-02-03T21:56:19.447Z,64.78
2024-02-03T21:58:47.141Z,64.43
2024-02-03T22:01:17.697Z,64.61
2024-02-03T22:03:45.535Z,64.69
2024-02-03T22:06:12.240Z,64.32
2024-02-03T22:08:38.924Z,64.56
2024-02-03T22:11:09.864Z,64.72
2024-02-03T22:13:37.172Z,64.82
2024-02-03T22:16:04.059Z,64.46
2024-02-03T22:18:30.879Z,64.85
2024-02-03T22:20:57.493Z,64.50
2024-02-03T22:23:26.037Z,64.56
2024-02-03T22:25:52.778Z,64.51
2024-02-03T22:28:19.617Z,64.77
2024-02-03T22:30:46.360Z,64.51
2024-02-03T22:33:13.099Z,64.73
2024-02-03T22:35:39.728Z,64.83
2024-02-03T22:38:06.324Z,64.65
2024-02-03T22:40:33.061Z,64.94
2024-02-03T22:42:59.842Z,64.87
2024-02-03T22:45:26.566Z,64.78
2024-02-03T22:47:53.213Z,65.05
2024-02-03T22:50:19.904Z,64.69
2024-02-03T22:52:46.572Z,64.98
2024-02-03T22:55:13.151Z,64.52
2024-02-03T22:57:39.793Z,64.80
2024-02-03T23:00:16.923Z,64.69
2024-02-03T23:02:44.343Z,64.89
2024-02-03T23:05:11.707Z,64.98
2024-02-03T23:07:39.019Z,64.49
2024-02-03T23:10:05.902Z,65.00
2024-02-03T23:12:32.522Z,64.67
2024-02-03T23:14:59.174Z,65.03
2024-02-03T23:17:25.956Z,64.77
2024-02-03T23:19:53.745Z,64.75
2024-02-03T23:22:20.672Z,64.65
2024-02-03T23:24:48.345Z,64.85
2024-02-03T23:27:15.548Z,64.90
2024-02-03T23:29:42.283Z,65.11
2024-02-03T23:32:08.941Z,64.77
2024-02-03T23:34:35.730Z,65.06
2024-02-03T23:37:02.489Z,64.97
2024-02-03T23:39:29.307Z,65.33
2024-02-03T23:41:56.124Z,65.28
2024-02-03T23:44:23.046Z,65.34
2024-02-03T23:46:49.774Z,65.04
2024-02-03T23:49:16.380Z,64.95
2024-02-03T23:51:43.339Z,65.40
2024-02-03T23:54:11.161Z,65.28
2024-02-03T23:56:38.843Z,65.14
2024-02-03T23:59:05.477Z,65.31
